createdAt,value
2018-03-02T00:00:00.556Z,24.52
2018-03-02T00:02:28.837Z,19.70
2018-03-02T00:04:57.134Z,24.10
2018-03-02T00:07:24.653Z,25.42
2018-03-02T00:09:52.193Z,24.67
2018-03-02T00:12:19.707Z,22.02
2018-03-02T00:14:47.269Z,20.92
2018-03-02T00:17:14.951Z,29.05
2018-03-02T00:19:42.486Z,23.30
2018-03-02T00:22:10.776Z,21.42
2018-03-02T00:24:38.338Z,23.80
2018-03-02T00:27:05.881Z,22.67
2018-03-02T00:29:34.173Z,25.25
2018-03-02T00:32:01.683Z,22.98
2018-03-02T00:34:29.212Z,26.40
2018-03-02T00:36:56.765Z,22.75
2018-03-02T00:39:24.284Z,27.37
2018-03-02T00:41:51.927Z,26.27
2018-03-02T00:44:19.461Z,22.05
2018-03-02T00:46:47.012Z,24.42
2018-03-02T00:49:14.523Z,22.73
2018-03-02T00:51:42.818Z,31.80
2018-03-02T00:54:10.327Z,23.75
2018-03-02T00:56:37.856Z,21.95
2018-03-02T00:59:05.428Z,24.30
2018-03-02T01:01:33.164Z,27.02
2018-03-02T01:04:00.706Z,29.95
2018-03-02T01:06:28.246Z,27.50
2018-03-02T01:08:55.750Z,29.95
2018-03-02T01:11:23.270Z,30.70
2018-03-02T01:13:50.847Z,27.05
2018-03-02T01:16:19.134Z,27.15
2018-03-02T01:18:47.449Z,28.50
2018-03-02T01:21:14.963Z,30.12
2018-03-02T01:23:43.234Z,27.60
2018-03-02T01:26:11.551Z,26.05
2018-03-02T01:28:39.169Z,23.50
2018-03-02T01:31:06.712Z,26.67
2018-03-02T01:33:34.269Z,26.52
2018-03-02T01:36:01.801Z,25.30
2018-03-02T01:38:29.330Z,19.90
2018-03-02T01:40:56.851Z,29.80
2018-03-02T01:43:24.379Z,27.52
2018-03-02T01:45:51.924Z,25.73
2018-03-02T01:48:19.455Z,27.15
2018-03-02T01:50:46.972Z,31.35
2018-03-02T01:53:14.513Z,31.27
2018-03-02T01:55:42.014Z,32.65
2018-03-02T01:58:09.524Z,24.35
2018-03-02T02:00:37.044Z,27.90
2018-03-02T02:03:05.331Z,27.00
2018-03-02T02:05:33.655Z,27.67
2018-03-02T02:08:01.167Z,26.20
2018-03-02T02:10:28.679Z,23.75
2018-03-02T02:12:56.204Z,22.83
2018-03-02T02:15:23.747Z,26.75
2018-03-02T02:17:52.070Z,29.65
2018-03-02T02:20:19.582Z,23.38
2018-03-02T02:22:47.866Z,29.95
2018-03-02T02:25:16.157Z,25.95
2018-03-02T02:27:43.738Z,24.65
2018-03-02T02:30:11.260Z,31.33
2018-03-02T02:32:39.650Z,27.55
2018-03-02T02:35:07.196Z,29.70
2018-03-02T02:37:37.197Z,26.58
2018-03-02T02:40:04.726Z,25.45
2018-03-02T02:42:32.244Z,29.55
2018-03-02T02:45:00.527Z,28.80
2018-03-02T02:47:28.035Z,25.45
2018-03-02T02:49:55.546Z,24.60
2018-03-02T02:52:23.061Z,28.40
2018-03-02T02:54:50.578Z,25.20
2018-03-02T02:57:18.096Z,34.17
2018-03-02T02:59:45.634Z,28.40
2018-03-02T03:02:13.155Z,32.45
2018-03-02T03:04:40.683Z,28.48
2018-03-02T03:07:08.243Z,23.62
2018-03-02T03:09:36.548Z,24.27
2018-03-02T03:12:04.080Z,21.77
2018-03-02T03:14:31.609Z,27.75
2018-03-02T03:16:59.124Z,28.70
2018-03-02T03:19:26.661Z,27.92
2018-03-02T03:21:54.940Z,24.45
2018-03-02T03:24:23.238Z,24.90
2018-03-02T03:26:50.799Z,24.42
2018-03-02T03:29:18.367Z,19.73
2018-03-02T03:31:45.896Z,25.92
2018-03-02T03:34:14.209Z,22.55
2018-03-02T03:36:41.757Z,25.15
2018-03-02T03:39:09.282Z,26.25
2018-03-02T03:41:37.664Z,28.58
2018-03-02T03:44:05.231Z,27.62
2018-03-02T03:46:33.505Z,19.95
2018-03-02T03:49:01.777Z,28.75
2018-03-02T03:51:30.053Z,26.87
2018-03-02T03:53:58.333Z,23.98
2018-03-02T03:56:26.623Z,22.77
2018-03-02T03:58:54.886Z,23.17
2018-03-02T04:01:23.168Z,28.58
2018-03-02T04:03:52.211Z,24.95
2018-03-02T04:06:20.711Z,34.65
2018-03-02T04:08:48.229Z,21.58
2018-03-02T04:11:15.770Z,27.25
2018-03-02T04:13:43.292Z,27.73
2018-03-02T04:16:10.815Z,28.48
2018-03-02T04:18:38.327Z,22.50
2018-03-02T04:21:05.863Z,24.55
2018-03-02T04:23:33.365Z,21.92
2018-03-02T04:26:00.875Z,21.12
2018-03-02T04:28:28.428Z,23.40
2018-03-02T04:30:55.946Z,24.27
2018-03-02T04:33:24.232Z,27.33
2018-03-02T04:35:51.763Z,23.75
2018-03-02T04:38:19.273Z,20.77
2018-03-02T04:40:46.779Z,27.48
2018-03-02T04:43:14.281Z,26.95
2018-03-02T04:45:41.814Z,24.60
2018-03-02T04:48:09.362Z,20.40
2018-03-02T04:50:36.878Z,25.52
2018-03-02T04:53:04.377Z,27.17
2018-03-02T04:55:31.917Z,25.05
2018-03-02T04:57:59.433Z,26.90
2018-03-02T05:00:26.948Z,29.05
2018-03-02T05:02:54.509Z,22.20
2018-03-02T05:05:22.031Z,26.98
2018-03-02T05:07:49.561Z,30.95
2018-03-02T05:10:17.083Z,23.45
2018-03-02T05:12:44.602Z,23.38
2018-03-02T05:15:12.124Z,29.52
2018-03-02T05:17:39.646Z,24.23
2018-03-02T05:20:07.193Z,29.50
2018-03-02T05:22:34.712Z,22.85
2018-03-02T05:25:02.239Z,31.92
2018-03-02T05:27:29.787Z,24.70
2018-03-02T05:29:57.339Z,24.92
2018-03-02T05:32:24.843Z,33.30
2018-03-02T05:34:53.119Z,26.42
2018-03-02T05:37:21.409Z,21.25
2018-03-02T05:39:48.927Z,27.42
2018-03-02T05:42:16.441Z,32.67
2018-03-02T05:44:43.927Z,32.15
2018-03-02T05:47:11.459Z,29.92
2018-03-02T05:49:39.014Z,28.40
2018-03-02T05:52:06.538Z,24.83
2018-03-02T05:54:34.038Z,23.15
2018-03-02T05:57:01.562Z,25.65
2018-03-02T05:59:29.851Z,25.15
2018-03-02T06:01:57.381Z,24.50
2018-03-02T06:04:24.882Z,32.17
2018-03-02T06:06:52.407Z,33.10
2018-03-02T06:09:19.928Z,29.20
2018-03-02T06:11:47.443Z,29.08
2018-03-02T06:14:15.736Z,23.42
2018-03-02T06:16:43.250Z,32.63
2018-03-02T06:19:10.767Z,30.80
2018-03-02T06:21:39.006Z,31.00
2018-03-02T06:24:06.519Z,32.10
2018-03-02T06:26:34.042Z,29.05
2018-03-02T06:29:02.316Z,23.42
2018-03-02T06:31:31.463Z,27.45
2018-03-02T06:33:59.099Z,31.85
2018-03-02T06:36:26.624Z,22.35
2018-03-02T06:38:54.144Z,26.02
2018-03-02T06:41:21.663Z,27.58
2018-03-02T06:43:49.200Z,31.58
2018-03-02T06:46:16.716Z,28.83
2018-03-02T06:48:44.267Z,28.90
2018-03-02T06:51:11.798Z,29.25
2018-03-02T06:53:39.332Z,25.98
2018-03-02T06:56:06.912Z,21.75
2018-03-02T06:58:34.447Z,29.55
2018-03-02T07:01:02.061Z,32.85
2018-03-02T07:03:29.586Z,27.33
2018-03-02T07:05:58.657Z,30.60
2018-03-02T07:08:26.984Z,31.87
2018-03-02T07:10:54.508Z,25.25
2018-03-02T07:13:22.026Z,29.83
2018-03-02T07:15:49.535Z,27.35
2018-03-02T07:18:17.819Z,21.85
2018-03-02T07:20:46.103Z,31.70
2018-03-02T07:23:13.642Z,24.80
2018-03-02T07:25:41.371Z,26.15
2018-03-02T07:28:08.890Z,31.80
2018-03-02T07:30:36.409Z,30.25
2018-03-02T07:33:03.918Z,31.27
2018-03-02T07:35:31.449Z,29.63
2018-03-02T07:37:59.728Z,30.83
2018-03-02T07:40:28.001Z,32.58
2018-03-02T07:42:56.299Z,25.60
2018-03-02T07:45:23.864Z,29.08
2018-03-02T07:47:51.377Z,24.15
2018-03-02T07:50:18.884Z,34.22
2018-03-02T07:52:46.396Z,28.60
2018-03-02T07:55:13.953Z,36.70
2018-03-02T07:57:41.483Z,35.97
2018-03-02T08:00:08.986Z,26.00
2018-03-02T08:02:36.541Z,29.25
2018-03-02T08:05:04.071Z,24.58
2018-03-02T08:07:31.667Z,29.77
2018-03-02T08:10:01.138Z,28.52
2018-03-02T08:12:28.671Z,31.70
2018-03-02T08:14:56.199Z,27.50
2018-03-02T08:17:23.712Z,34.15
2018-03-02T08:19:51.234Z,30.92
2018-03-02T08:22:18.771Z,22.20
2018-03-02T08:24:47.070Z,32.33
2018-03-02T08:27:14.591Z,35.97
2018-03-02T08:29:42.124Z,31.58
2018-03-02T08:32:09.644Z,31.80
2018-03-02T08:34:37.215Z,38.90
2018-03-02T08:37:04.732Z,30.77
2018-03-02T08:39:32.279Z,29.83
2018-03-02T08:41:59.822Z,29.37
2018-03-02T08:44:27.323Z,31.37
2018-03-02T08:46:54.881Z,27.37
2018-03-02T08:49:22.373Z,33.80
2018-03-02T08:51:49.890Z,39.55
2018-03-02T08:54:17.403Z,31.30
2018-03-02T08:56:44.966Z,35.13
2018-03-02T08:59:12.518Z,31.67
2018-03-02T09:01:40.039Z,33.72
2018-03-02T09:04:07.558Z,35.78
2018-03-02T09:06:35.100Z,33.88
2018-03-02T09:09:02.620Z,35.63
2018-03-02T09:11:30.934Z,44.17
2018-03-02T09:13:58.511Z,35.13
2018-03-02T09:16:26.055Z,28.58
2018-03-02T09:18:53.584Z,37.55
2018-03-02T09:21:22.151Z,29.25
2018-03-02T09:23:50.498Z,29.90
2018-03-02T09:26:18.041Z,33.58
2018-03-02T09:28:45.565Z,33.97
2018-03-02T09:31:13.844Z,33.42
2018-03-02T09:33:42.165Z,32.78
2018-03-02T09:36:09.708Z,39.60
2018-03-02T09:38:37.247Z,34.38
2018-03-02T09:41:05.547Z,30.55
2018-03-02T09:43:33.108Z,32.50
2018-03-02T09:46:00.631Z,36.67
2018-03-02T09:48:28.960Z,36.58
2018-03-02T09:50:56.505Z,35.03
2018-03-02T09:53:24.036Z,31.08
2018-03-02T09:55:52.352Z,29.02
2018-03-02T09:58:19.902Z,29.75
2018-03-02T10:00:47.432Z,38.60
2018-03-02T10:03:15.186Z,34.03
2018-03-02T10:05:42.727Z,26.73
2018-03-02T10:08:10.273Z,28.38
2018-03-02T10:10:37.806Z,30.42
2018-03-02T10:13:05.322Z,28.00
2018-03-02T10:15:32.866Z,32.05
2018-03-02T10:18:00.397Z,28.45
2018-03-02T10:20:27.918Z,30.42
2018-03-02T10:22:56.367Z,34.67
2018-03-02T10:25:23.874Z,32.15
2018-03-02T10:27:51.396Z,35.35
2018-03-02T10:30:18.922Z,31.27
2018-03-02T10:32:46.544Z,28.87
2018-03-02T10:35:14.060Z,25.30
2018-03-02T10:37:41.603Z,30.60
2018-03-02T10:40:09.222Z,32.38
2018-03-02T10:42:37.499Z,27.62
2018-03-02T10:45:05.008Z,31.12
2018-03-02T10:47:32.541Z,30.02
2018-03-02T10:50:00.065Z,28.50
2018-03-02T10:52:28.374Z,32.08
2018-03-02T10:54:55.899Z,33.08
2018-03-02T10:57:24.192Z,29.63
2018-03-02T10:59:51.702Z,30.92
2018-03-02T11:02:21.010Z,30.10
2018-03-02T11:05:06.331Z,31.30
2018-03-02T11:07:33.876Z,29.87
2018-03-02T11:10:01.407Z,30.02
2018-03-02T11:12:28.933Z,31.05
2018-03-02T11:14:56.462Z,28.95
2018-03-02T11:17:24.747Z,30.95
2018-03-02T11:19:52.375Z,32.10
2018-03-02T11:22:19.882Z,29.67
2018-03-02T11:24:47.418Z,32.38
2018-03-02T11:27:15.709Z,30.10
2018-03-02T11:29:43.238Z,34.47
2018-03-02T11:32:10.751Z,37.22
2018-03-02T11:34:38.257Z,34.35
2018-03-02T11:37:05.782Z,30.33
2018-03-02T11:39:33.306Z,34.03
2018-03-02T11:42:00.825Z,31.83
2018-03-02T11:44:28.343Z,30.23
2018-03-02T11:46:55.874Z,28.80
2018-03-02T11:49:23.395Z,30.73
2018-03-02T11:51:50.986Z,32.13
2018-03-02T11:54:18.505Z,28.85
2018-03-02T11:56:46.010Z,32.03
2018-03-02T11:59:14.306Z,32.97
2018-03-02T12:01:41.828Z,31.30
2018-03-02T12:04:09.375Z,29.85
2018-03-02T12:06:36.901Z,31.55
2018-03-02T12:09:04.460Z,31.37
2018-03-02T12:11:31.989Z,31.75
2018-03-02T12:14:00.259Z,28.95
2018-03-02T12:16:28.522Z,29.08
2018-03-02T12:18:56.839Z,29.10
2018-03-02T12:21:24.355Z,31.95
2018-03-02T12:23:51.873Z,27.30
2018-03-02T12:26:19.503Z,31.83
2018-03-02T12:28:47.051Z,29.70
2018-03-02T12:48:34.596Z,28.50
2018-03-02T12:51:02.125Z,31.12
2018-03-02T12:53:29.672Z,31.45
2018-03-02T12:55:57.194Z,29.45
2018-03-02T12:58:24.767Z,31.90
2018-03-02T13:00:52.352Z,33.72
2018-03-02T13:03:19.861Z,35.65
2018-03-02T13:05:48.130Z,31.75
2018-03-02T13:08:16.424Z,27.35
2018-03-02T13:10:44.752Z,30.52
2018-03-02T13:13:12.259Z,32.03
2018-03-02T13:15:39.835Z,33.40
2018-03-02T13:18:07.399Z,30.62
2018-03-02T13:20:35.006Z,32.35
2018-03-02T13:23:02.534Z,32.75
2018-03-02T13:25:30.097Z,30.23
2018-03-02T13:28:09.381Z,32.70
2018-03-02T13:30:38.598Z,32.10
2018-03-02T13:33:17.892Z,33.00
2018-03-02T13:35:45.420Z,32.08
2018-03-02T13:38:12.924Z,33.85
2018-03-02T13:40:52.305Z,31.70
2018-03-02T13:43:19.835Z,35.42
2018-03-02T13:45:47.412Z,30.42
2018-03-02T13:48:35.675Z,30.58
2018-03-02T13:51:03.884Z,28.25
2018-03-02T13:53:31.402Z,32.15
2018-03-02T13:55:58.914Z,32.67
2018-03-02T13:58:26.467Z,32.65
2018-03-02T14:00:54.019Z,30.95
2018-03-02T14:03:33.230Z,31.90
2018-03-02T14:06:00.764Z,32.35
2018-03-02T14:08:28.334Z,28.75
2018-03-02T14:10:55.853Z,35.28
2018-03-02T14:13:23.371Z,31.17
2018-03-02T14:15:50.923Z,29.63
2018-03-02T14:18:18.452Z,31.77
2018-03-02T14:20:45.950Z,30.95
2018-03-02T14:23:13.475Z,30.12
2018-03-02T14:25:41.031Z,29.50
2018-03-02T14:28:08.572Z,31.00
2018-03-02T14:30:36.102Z,34.03
2018-03-02T14:33:03.615Z,33.92
2018-03-02T14:35:32.242Z,32.95
2018-03-02T14:37:59.789Z,29.55
2018-03-02T14:40:27.296Z,34.78
2018-03-02T14:42:55.572Z,32.97
2018-03-02T14:45:23.894Z,30.80
2018-03-02T14:47:51.404Z,32.00
2018-03-02T14:50:18.907Z,28.77
2018-03-02T14:52:46.424Z,28.23
2018-03-02T14:55:13.929Z,29.92
2018-03-02T14:57:41.442Z,31.98
2018-03-02T15:00:08.975Z,30.58
2018-03-02T15:02:36.506Z,29.40
2018-03-02T15:05:04.015Z,31.10
2018-03-02T15:07:31.548Z,30.77
2018-03-02T15:09:59.072Z,32.25
2018-03-02T15:12:26.623Z,34.15
2018-03-02T15:14:56.753Z,29.92
2018-03-02T15:17:24.260Z,28.02
2018-03-02T15:19:51.782Z,27.52
2018-03-02T15:22:19.287Z,31.67
2018-03-02T15:24:46.832Z,26.08
2018-03-02T15:27:15.162Z,30.73
2018-03-02T15:29:42.699Z,28.87
2018-03-02T15:32:10.259Z,29.48
2018-03-02T15:34:38.558Z,29.08
2018-03-02T15:37:06.093Z,31.02
2018-03-02T15:39:33.600Z,26.60
2018-03-02T15:42:01.128Z,26.17
2018-03-02T15:44:29.426Z,25.50
2018-03-02T15:46:56.958Z,22.75
2018-03-02T15:49:24.478Z,26.98
2018-03-02T15:51:52.005Z,22.45
2018-03-02T15:54:19.511Z,25.23
2018-03-02T15:56:47.036Z,23.87
2018-03-02T15:59:14.570Z,22.23
2018-03-02T16:01:42.122Z,22.87
2018-03-02T16:04:09.755Z,24.60
2018-03-02T16:06:37.293Z,24.35
2018-03-02T16:09:05.608Z,26.77
2018-03-02T16:11:33.144Z,22.48
2018-03-02T16:14:00.684Z,23.00
2018-03-02T16:16:28.222Z,26.77
2018-03-02T16:18:55.724Z,21.73
2018-03-02T16:21:23.314Z,23.98
2018-03-02T16:23:51.606Z,24.67
2018-03-02T16:26:19.133Z,21.77
2018-03-02T16:28:46.755Z,24.35
2018-03-02T16:31:14.384Z,23.92
2018-03-02T16:33:41.958Z,26.85
2018-03-02T16:36:09.484Z,25.08
2018-03-02T16:38:37.061Z,22.25
2018-03-02T16:41:04.538Z,21.55
2018-03-02T16:43:32.076Z,21.30
2018-03-02T16:45:59.637Z,20.12
2018-03-02T16:48:27.187Z,22.50
2018-03-02T16:50:55.493Z,19.98
2018-03-02T16:53:23.037Z,24.87
2018-03-02T16:55:50.586Z,22.25
2018-03-02T16:58:18.876Z,25.08
2018-03-02T17:00:46.404Z,24.08
2018-03-02T17:03:13.922Z,21.52
2018-03-02T17:05:41.478Z,22.98
2018-03-02T17:08:09.004Z,21.65
2018-03-02T17:10:36.533Z,25.10
2018-03-02T17:13:04.093Z,20.88
2018-03-02T17:15:31.632Z,22.60
2018-03-02T17:17:59.139Z,21.30
2018-03-02T17:20:27.426Z,21.02
2018-03-02T17:22:55.716Z,21.37
2018-03-02T17:25:23.240Z,20.75
2018-03-02T17:27:50.750Z,24.80
2018-03-02T17:30:21.116Z,24.83
2018-03-02T17:32:48.659Z,22.98
2018-03-02T17:35:16.232Z,22.27
2018-03-02T17:37:43.779Z,19.37
2018-03-02T17:40:11.330Z,19.70
2018-03-02T17:42:38.863Z,22.10
2018-03-02T17:45:06.432Z,23.80
2018-03-02T17:47:33.963Z,22.87
2018-03-02T17:50:02.316Z,23.40
2018-03-02T17:52:29.859Z,21.30
2018-03-02T17:54:57.485Z,21.80
2018-03-02T17:57:25.029Z,27.58
2018-03-02T17:59:53.311Z,23.92
2018-03-02T18:02:20.850Z,24.33
2018-03-02T18:04:48.434Z,23.90
2018-03-02T18:07:15.968Z,20.58
2018-03-02T18:09:43.515Z,19.83
2018-03-02T18:12:11.028Z,22.30
2018-03-02T18:14:38.568Z,22.25
2018-03-02T18:17:06.110Z,21.77
2018-03-02T18:19:34.400Z,21.65
2018-03-02T18:22:01.935Z,24.60
2018-03-02T18:24:29.437Z,23.58
2018-03-02T18:26:56.959Z,26.08
2018-03-02T18:29:24.475Z,24.75
2018-03-02T18:32:00.574Z,23.02
2018-03-02T18:34:28.974Z,29.30
2018-03-02T18:36:57.248Z,22.40
2018-03-02T18:39:25.595Z,23.87
2018-03-02T18:41:53.073Z,25.45
2018-03-02T18:44:20.611Z,27.35
2018-03-02T18:46:48.171Z,25.02
2018-03-02T18:49:15.773Z,24.92
2018-03-02T18:51:44.039Z,27.10
2018-03-02T18:54:12.369Z,23.90
2018-03-02T18:56:40.194Z,24.20
2018-03-02T18:59:07.767Z,26.23
2018-03-02T19:01:35.289Z,23.60
2018-03-02T19:04:02.821Z,24.90
2018-03-02T19:06:30.354Z,25.55
2018-03-02T19:08:57.880Z,28.50
2018-03-02T19:28:45.488Z,24.65
2018-03-02T19:31:13.037Z,28.00
2018-03-02T19:33:40.569Z,29.05
2018-03-02T19:36:08.104Z,29.40
2018-03-02T19:38:36.424Z,29.23
2018-03-02T19:41:03.976Z,28.67
2018-03-02T19:43:31.477Z,28.02
2018-03-02T19:45:59.002Z,30.10
2018-03-02T19:48:26.562Z,31.77
2018-03-02T19:50:54.116Z,25.23
2018-03-02T19:53:21.627Z,32.47
2018-03-02T19:55:49.167Z,27.92
2018-03-02T19:58:17.483Z,30.10
2018-03-02T20:00:45.778Z,40.60
2018-03-02T20:03:13.330Z,26.52
2018-03-02T20:05:40.867Z,30.00
2018-03-02T20:08:09.202Z,30.90
2018-03-02T20:10:36.727Z,26.95
2018-03-02T20:13:04.244Z,31.37
2018-03-02T20:15:31.759Z,29.37
2018-03-02T20:17:59.273Z,30.55
2018-03-02T20:20:26.869Z,28.08
2018-03-02T20:22:55.147Z,32.55
2018-03-02T20:25:22.698Z,27.23
2018-03-02T20:27:50.274Z,33.97
2018-03-02T20:30:17.809Z,32.55
2018-03-02T20:32:46.131Z,34.47
2018-03-02T20:35:13.722Z,34.13
2018-03-02T20:37:41.232Z,27.20
2018-03-02T20:40:08.768Z,31.50
2018-03-02T20:42:37.055Z,31.55
2018-03-02T20:45:05.322Z,32.17
2018-03-02T20:47:33.650Z,31.33
2018-03-02T20:50:01.167Z,31.70
2018-03-02T20:52:28.903Z,31.27
2018-03-02T20:54:56.443Z,27.92
2018-03-02T20:57:23.989Z,30.02
2018-03-02T20:59:51.525Z,29.52
2018-03-02T21:02:19.086Z,35.97
2018-03-02T21:04:46.637Z,28.95
2018-03-02T21:07:14.937Z,30.05
2018-03-02T21:09:42.480Z,39.90
2018-03-02T21:12:10.054Z,32.00
2018-03-02T21:14:37.581Z,30.60
2018-03-02T21:17:05.147Z,31.85
2018-03-02T21:19:33.441Z,30.85
2018-03-02T21:22:00.958Z,30.40
2018-03-02T21:24:28.521Z,32.65
2018-03-02T21:26:56.082Z,28.92
2018-03-02T21:29:23.606Z,30.60
2018-03-02T21:31:51.176Z,35.97
2018-03-02T21:34:18.979Z,31.50
2018-03-02T21:36:46.282Z,30.08
2018-03-02T21:39:13.837Z,31.02
2018-03-02T21:41:41.373Z,27.33
2018-03-02T21:44:09.644Z,33.35
2018-03-02T21:46:37.945Z,30.48
2018-03-02T21:49:05.540Z,31.33
2018-03-02T21:51:33.059Z,27.13
2018-03-02T21:54:00.580Z,30.15
2018-03-02T21:56:28.115Z,32.20
2018-03-02T21:58:55.660Z,31.33
2018-03-02T22:01:23.185Z,29.83
2018-03-02T22:03:50.712Z,29.05
2018-03-02T22:06:18.228Z,28.67
2018-03-02T22:08:45.742Z,30.75
2018-03-02T22:11:13.278Z,32.63
2018-03-02T22:13:40.805Z,28.80
2018-03-02T22:16:08.324Z,29.35
2018-03-02T22:18:35.832Z,32.75
2018-03-02T22:21:03.354Z,32.83
2018-03-02T22:23:31.641Z,34.75
2018-03-02T22:25:59.158Z,33.47
2018-03-02T22:28:26.693Z,34.15
2018-03-02T22:30:54.247Z,30.55
2018-03-02T22:33:21.826Z,36.22
2018-03-02T22:35:49.387Z,36.20
2018-03-02T22:38:16.917Z,36.42
2018-03-02T22:40:44.469Z,32.05
2018-03-02T22:43:12.040Z,33.78
2018-03-02T22:45:39.524Z,34.88
2018-03-02T22:48:07.038Z,30.12
2018-03-02T22:50:34.545Z,28.48
2018-03-02T22:53:02.141Z,34.33
2018-03-02T22:55:30.447Z,32.75
2018-03-02T22:57:58.011Z,32.53
2018-03-02T23:00:25.618Z,31.80
2018-03-02T23:02:53.102Z,30.58
2018-03-02T23:05:20.614Z,30.73
2018-03-02T23:07:48.125Z,33.05
2018-03-02T23:10:16.390Z,36.97
2018-03-02T23:12:44.692Z,37.40
2018-03-02T23:15:12.210Z,33.15
2018-03-02T23:17:39.799Z,34.00
2018-03-02T23:20:08.091Z,29.65
2018-03-02T23:22:35.605Z,32.70
2018-03-02T23:25:03.130Z,33.53
2018-03-02T23:27:30.643Z,31.52
2018-03-02T23:29:58.928Z,38.42
2018-03-02T23:32:27.214Z,36.85
2018-03-02T23:34:54.758Z,30.62
2018-03-02T23:37:22.363Z,29.85
2018-03-02T23:39:49.871Z,33.22
2018-03-02T23:42:17.492Z,32.55
2018-03-02T23:44:45.008Z,30.98
2018-03-02T23:47:12.546Z,31.67
2018-03-02T23:49:40.059Z,38.13
2018-03-02T23:52:07.583Z,30.98
2018-03-02T23:54:35.111Z,40.17
2018-03-02T23:57:02.643Z,29.20
2018-03-02T23:59:30.142Z,35.67
